sensor_id;sensor_type;location;lat;lon;timestamp;pressure;altitude;pressure_sealevel;temperature;humidity
10992;BME280;5549;47.028;15.514;2023-05-13T00:01:28;96662.94;;;10.83;94.37
10992;BME280;5549;47.028;15.514;2023-05-13T00:03:58;96664.13;;;10.58;95.66
10992;BME280;5549;47.028;15.514;2023-05-13T00:06:28;96663.94;;;10.92;93.93
10992;BME280;5549;47.028;15.514;2023-05-13T00:08:57;96670.16;;;11.12;92.67
10992;BME280;5549;47.028;15.514;2023-05-13T00:11:26;96666.00;;;11.09;91.55
10992;BME280;5549;47.028;15.514;2023-05-13T00:13:57;96668.41;;;11.22;92.01
10992;BME280;5549;47.028;15.514;2023-05-13T00:16:24;96665.66;;;11.23;91.06
10992;BME280;5549;47.028;15.514;2023-05-13T00:18:56;96665.56;;;11.35;90.97
10992;BME280;5549;47.028;15.514;2023-05-13T00:21:26;96665.13;;;11.30;90.70
10992;BME280;5549;47.028;15.514;2023-05-13T00:23:56;96666.28;;;11.37;90.85
10992;BME280;5549;47.028;15.514;2023-05-13T00:26:23;96664.97;;;11.21;90.94
10992;BME280;5549;47.028;15.514;2023-05-13T00:28:52;96657.69;;;11.35;90.88
10992;BME280;5549;47.028;15.514;2023-05-13T00:31:19;96668.53;;;11.41;90.68
10992;BME280;5549;47.028;15.514;2023-05-13T00:33:50;96658.25;;;11.38;90.21
10992;BME280;5549;47.028;15.514;2023-05-13T00:36:19;96659.53;;;11.44;90.42
10992;BME280;5549;47.028;15.514;2023-05-13T00:38:47;96662.16;;;11.44;90.13
10992;BME280;5549;47.028;15.514;2023-05-13T00:41:17;96663.97;;;11.43;89.75
10992;BME280;5549;47.028;15.514;2023-05-13T00:43:49;96657.78;;;11.54;89.36
10992;BME280;5549;47.028;15.514;2023-05-13T00:46:24;96656.13;;;11.53;89.42
10992;BME280;5549;47.028;15.514;2023-05-13T00:48:52;96662.19;;;11.53;89.15
10992;BME280;5549;47.028;15.514;2023-05-13T00:51:19;96657.78;;;11.54;89.00
10992;BME280;5549;47.028;15.514;2023-05-13T00:53:50;96663.34;;;11.61;89.00
10992;BME280;5549;47.028;15.514;2023-05-13T00:56:20;96667.47;;;11.53;89.17
10992;BME280;5549;47.028;15.514;2023-05-13T00:58:50;96666.38;;;11.56;89.06
10992;BME280;5549;47.028;15.514;2023-05-13T01:01:29;96674.00;;;11.59;88.46
10992;BME280;5549;47.028;15.514;2023-05-13T01:04:13;96676.34;;;11.62;88.92
10992;BME280;5549;47.028;15.514;2023-05-13T01:06:56;96672.50;;;11.66;88.26
10992;BME280;5549;47.028;15.514;2023-05-13T01:09:35;96672.50;;;11.66;88.71
10992;BME280;5549;47.028;15.514;2023-05-13T01:12:11;96672.81;;;11.73;88.23
10992;BME280;5549;47.028;15.514;2023-05-13T01:14:51;96673.63;;;11.73;88.54
10992;BME280;5549;47.028;15.514;2023-05-13T01:17:29;96680.69;;;11.73;88.45
10992;BME280;5549;47.028;15.514;2023-05-13T01:20:01;96679.84;;;11.72;88.27
10992;BME280;5549;47.028;15.514;2023-05-13T01:22:33;96683.97;;;11.65;87.93
10992;BME280;5549;47.028;15.514;2023-05-13T01:25:00;96685.75;;;11.55;88.14
10992;BME280;5549;47.028;15.514;2023-05-13T01:27:28;96676.06;;;11.55;88.40
10992;BME280;5549;47.028;15.514;2023-05-13T01:29:56;96679.66;;;11.54;88.56
10992;BME280;5549;47.028;15.514;2023-05-13T01:32:24;96678.56;;;11.57;88.23
10992;BME280;5549;47.028;15.514;2023-05-13T01:34:52;96677.47;;;11.60;88.80
10992;BME280;5549;47.028;15.514;2023-05-13T01:37:20;96683.16;;;11.65;89.23
10992;BME280;5549;47.028;15.514;2023-05-13T01:39:49;96682.16;;;11.56;88.80
10992;BME280;5549;47.028;15.514;2023-05-13T01:42:17;96682.59;;;11.61;88.98
10992;BME280;5549;47.028;15.514;2023-05-13T01:44:50;96681.31;;;11.55;88.66
10992;BME280;5549;47.028;15.514;2023-05-13T01:47:23;96677.94;;;11.44;89.24
10992;BME280;5549;47.028;15.514;2023-05-13T01:49:51;96679.88;;;11.42;89.89
10992;BME280;5549;47.028;15.514;2023-05-13T01:52:20;96677.09;;;11.43;89.79
10992;BME280;5549;47.028;15.514;2023-05-13T01:54:49;96683.22;;;11.23;91.24
10992;BME280;5549;47.028;15.514;2023-05-13T01:57:17;96672.94;;;11.41;89.57
10992;BME280;5549;47.028;15.514;2023-05-13T01:59:45;96682.34;;;11.13;91.50
10992;BME280;5549;47.028;15.514;2023-05-13T02:02:15;96674.63;;;11.21;91.46
10992;BME280;5549;47.028;15.514;2023-05-13T02:04:45;96683.97;;;11.35;90.23
10992;BME280;5549;47.028;15.514;2023-05-13T02:07:12;96686.00;;;11.21;91.51
10992;BME280;5549;47.028;15.514;2023-05-13T02:09:42;96686.31;;;11.07;92.63
10992;BME280;5549;47.028;15.514;2023-05-13T02:12:11;96689.66;;;11.09;92.01
10992;BME280;5549;47.028;15.514;2023-05-13T02:14:41;96686.31;;;11.07;92.50
10992;BME280;5549;47.028;15.514;2023-05-13T02:17:11;96685.03;;;11.22;92.00
10992;BME280;5549;47.028;15.514;2023-05-13T02:19:41;96687.25;;;11.27;91.38
10992;BME280;5549;47.028;15.514;2023-05-13T02:22:11;96690.66;;;11.39;90.97
10992;BME280;5549;47.028;15.514;2023-05-13T02:24:41;96687.84;;;11.31;90.67
10992;BME280;5549;47.028;15.514;2023-05-13T02:27:12;96696.44;;;11.33;90.91
10992;BME280;5549;47.028;15.514;2023-05-13T02:29:43;96691.16;;;11.33;90.87
10992;BME280;5549;47.028;15.514;2023-05-13T02:32:11;96695.34;;;11.14;91.70
10992;BME280;5549;47.028;15.514;2023-05-13T02:34:41;96691.63;;;11.17;91.53
10992;BME280;5549;47.028;15.514;2023-05-13T02:37:08;96695.22;;;11.16;91.70
10992;BME280;5549;47.028;15.514;2023-05-13T02:39:36;96692.91;;;11.02;92.92
10992;BME280;5549;47.028;15.514;2023-05-13T02:42:04;96694.97;;;10.98;92.65
10992;BME280;5549;47.028;15.514;2023-05-13T02:44:33;96688.34;;;11.24;91.80
10992;BME280;5549;47.028;15.514;2023-05-13T02:47:01;96697.03;;;11.15;92.07
10992;BME280;5549;47.028;15.514;2023-05-13T02:49:28;96700.59;;;11.14;91.67
10992;BME280;5549;47.028;15.514;2023-05-13T02:51:58;96695.94;;;10.97;92.88
10992;BME280;5549;47.028;15.514;2023-05-13T02:54:26;96695.28;;;10.84;93.41
10992;BME280;5549;47.028;15.514;2023-05-13T02:56:55;96694.66;;;11.12;92.48
10992;BME280;5549;47.028;15.514;2023-05-13T02:59:23;96700.41;;;11.27;91.71
10992;BME280;5549;47.028;15.514;2023-05-13T03:01:54;96694.06;;;11.30;91.83
10992;BME280;5549;47.028;15.514;2023-05-13T03:04:24;96699.19;;;11.31;91.43
10992;BME280;5549;47.028;15.514;2023-05-13T03:06:54;96700.59;;;11.35;90.80
10992;BME280;5549;47.028;15.514;2023-05-13T03:09:22;96704.75;;;11.38;90.89
10992;BME280;5549;47.028;15.514;2023-05-13T03:11:49;96707.84;;;11.43;90.05
10992;BME280;5549;47.028;15.514;2023-05-13T03:14:17;96696.47;;;11.42;90.58
10992;BME280;5549;47.028;15.514;2023-05-13T03:16:45;96700.00;;;11.52;89.91
10992;BME280;5549;47.028;15.514;2023-05-13T03:19:14;96701.66;;;11.53;90.13
10992;BME280;5549;47.028;15.514;2023-05-13T03:21:44;96704.84;;;11.57;89.63
10992;BME280;5549;47.028;15.514;2023-05-13T03:24:14;96705.38;;;11.51;89.25
10992;BME280;5549;47.028;15.514;2023-05-13T03:26:44;96710.06;;;11.47;90.55
10992;BME280;5549;47.028;15.514;2023-05-13T03:29:12;96706.78;;;11.55;89.37
10992;BME280;5549;47.028;15.514;2023-05-13T03:31:39;96715.91;;;11.51;89.33
10992;BME280;5549;47.028;15.514;2023-05-13T03:34:07;96701.78;;;11.52;89.66
10992;BME280;5549;47.028;15.514;2023-05-13T03:36:36;96710.63;;;11.51;90.24
10992;BME280;5549;47.028;15.514;2023-05-13T03:39:04;96713.97;;;11.53;89.30
10992;BME280;5549;47.028;15.514;2023-05-13T03:41:32;96713.78;;;11.45;89.37
10992;BME280;5549;47.028;15.514;2023-05-13T03:44:00;96705.38;;;11.51;89.70
10992;BME280;5549;47.028;15.514;2023-05-13T03:46:27;96713.81;;;11.24;90.88
10992;BME280;5549;47.028;15.514;2023-05-13T03:48:55;96714.06;;;11.21;91.05
10992;BME280;5549;47.028;15.514;2023-05-13T03:51:23;96717.91;;;11.17;92.17
10992;BME280;5549;47.028;15.514;2023-05-13T03:53:54;96721.44;;;11.27;91.44
10992;BME280;5549;47.028;15.514;2023-05-13T03:56:24;96717.41;;;11.23;92.03
10992;BME280;5549;47.028;15.514;2023-05-13T03:58:54;96720.53;;;10.96;93.11
10992;BME280;5549;47.028;15.514;2023-05-13T04:01:22;96717.78;;;11.18;91.90
10992;BME280;5549;47.028;15.514;2023-05-13T04:03:51;96721.78;;;11.13;92.46
10992;BME280;5549;47.028;15.514;2023-05-13T04:06:21;96729.06;;;11.09;92.84
10992;BME280;5549;47.028;15.514;2023-05-13T04:08:51;96724.69;;;10.78;94.43
10992;BME280;5549;47.028;15.514;2023-05-13T04:11:22;96725.16;;;11.04;93.70
10992;BME280;5549;47.028;15.514;2023-05-13T04:13:49;96730.28;;;10.52;96.23
10992;BME280;5549;47.028;15.514;2023-05-13T04:16:19;96733.06;;;10.72;95.42
10992;BME280;5549;47.028;15.514;2023-05-13T04:18:47;96731.41;;;10.71;96.16
10992;BME280;5549;47.028;15.514;2023-05-13T04:21:17;96730.44;;;10.72;96.38
10992;BME280;5549;47.028;15.514;2023-05-13T04:23:47;96726.59;;;10.76;96.03
10992;BME280;5549;47.028;15.514;2023-05-13T04:26:14;96728.63;;;10.51;97.22
10992;BME280;5549;47.028;15.514;2023-05-13T04:28:43;96736.06;;;10.67;96.44
10992;BME280;5549;47.028;15.514;2023-05-13T04:31:11;96739.41;;;10.69;95.83
10992;BME280;5549;47.028;15.514;2023-05-13T04:33:41;96736.94;;;10.56;97.38
10992;BME280;5549;47.028;15.514;2023-05-13T04:36:10;96741.91;;;10.71;96.22
10992;BME280;5549;47.028;15.514;2023-05-13T04:38:38;96737.53;;;10.60;97.13
10992;BME280;5549;47.028;15.514;2023-05-13T04:41:05;96737.38;;;10.73;96.48
10992;BME280;5549;47.028;15.514;2023-05-13T04:43:35;96742.06;;;10.90;95.19
10992;BME280;5549;47.028;15.514;2023-05-13T04:46:06;96733.22;;;10.91;95.17
10992;BME280;5549;47.028;15.514;2023-05-13T04:48:34;96738.78;;;10.77;96.24
10992;BME280;5549;47.028;15.514;2023-05-13T04:51:04;96743.06;;;10.78;95.38
10992;BME280;5549;47.028;15.514;2023-05-13T04:53:34;96745.19;;;10.84;95.31
10992;BME280;5549;47.028;15.514;2023-05-13T04:56:05;96738.38;;;10.60;97.83
10992;BME280;5549;47.028;15.514;2023-05-13T04:58:33;96744.16;;;10.43;99.02
10992;BME280;5549;47.028;15.514;2023-05-13T05:01:03;96754.41;;;10.46;98.93
10992;BME280;5549;47.028;15.514;2023-05-13T05:03:33;96753.56;;;10.46;98.33
10992;BME280;5549;47.028;15.514;2023-05-13T05:06:01;96761.44;;;10.12;100.00
10992;BME280;5549;47.028;15.514;2023-05-13T05:08:30;96757.50;;;10.29;100.00
10992;BME280;5549;47.028;15.514;2023-05-13T05:10:59;96763.13;;;10.36;99.50
10992;BME280;5549;47.028;15.514;2023-05-13T05:13:27;96763.50;;;10.20;100.00
10992;BME280;5549;47.028;15.514;2023-05-13T05:15:55;96758.47;;;10.17;100.00
10992;BME280;5549;47.028;15.514;2023-05-13T05:18:22;96754.31;;;10.25;100.00
10992;BME280;5549;47.028;15.514;2023-05-13T05:20:51;96758.94;;;10.33;99.78
10992;BME280;5549;47.028;15.514;2023-05-13T05:23:19;96767.03;;;10.19;100.00
10992;BME280;5549;47.028;15.514;2023-05-13T05:25:46;96757.63;;;10.50;98.77
10992;BME280;5549;47.028;15.514;2023-05-13T05:28:16;96769.69;;;10.30;100.00
10992;BME280;5549;47.028;15.514;2023-05-13T05:30:44;96772.53;;;10.38;99.86
10992;BME280;5549;47.028;15.514;2023-05-13T05:33:14;96758.13;;;10.21;100.00
10992;BME280;5549;47.028;15.514;2023-05-13T05:35:42;96765.38;;;10.18;100.00
10992;BME280;5549;47.028;15.514;2023-05-13T05:38:13;96773.38;;;10.16;100.00
10992;BME280;5549;47.028;15.514;2023-05-13T05:40:43;96771.13;;;10.23;100.00
10992;BME280;5549;47.028;15.514;2023-05-13T05:43:13;96780.19;;;10.30;100.00
10992;BME280;5549;47.028;15.514;2023-05-13T05:45:44;96775.88;;;10.51;98.74
10992;BME280;5549;47.028;15.514;2023-05-13T05:48:14;96764.28;;;10.54;98.49
10992;BME280;5549;47.028;15.514;2023-05-13T05:50:41;96782.34;;;10.47;98.41
10992;BME280;5549;47.028;15.514;2023-05-13T05:53:13;96775.91;;;10.40;98.70
10992;BME280;5549;47.028;15.514;2023-05-13T05:55:43;96783.75;;;10.29;100.00
10992;BME280;5549;47.028;15.514;2023-05-13T05:58:14;96788.06;;;10.30;100.00
10992;BME280;5549;47.028;15.514;2023-05-13T06:00:44;96788.41;;;10.25;100.00
10992;BME280;5549;47.028;15.514;2023-05-13T06:03:14;96796.16;;;10.49;99.54
10992;BME280;5549;47.028;15.514;2023-05-13T06:05:44;96794.38;;;10.50;99.18
10992;BME280;5549;47.028;15.514;2023-05-13T06:08:13;96792.28;;;10.76;99.18
10992;BME280;5549;47.028;15.514;2023-05-13T06:10:40;96794.38;;;10.93;99.03
10992;BME280;5549;47.028;15.514;2023-05-13T06:13:08;96796.69;;;10.75;97.89
10992;BME280;5549;47.028;15.514;2023-05-13T06:15:38;96794.03;;;10.86;97.60
10992;BME280;5549;47.028;15.514;2023-05-13T06:18:07;96797.16;;;10.80;96.70
10992;BME280;5549;47.028;15.514;2023-05-13T06:20:35;96804.03;;;10.60;97.91
10992;BME280;5549;47.028;15.514;2023-05-13T06:23:06;96800.94;;;11.19;96.08
10992;BME280;5549;47.028;15.514;2023-05-13T06:25:35;96802.63;;;11.20;96.62
10992;BME280;5549;47.028;15.514;2023-05-13T06:28:04;96796.69;;;11.07;96.00
10992;BME280;5549;47.028;15.514;2023-05-13T06:30:33;96802.22;;;11.04;94.81
10992;BME280;5549;47.028;15.514;2023-05-13T06:33:02;96808.38;;;11.35;94.34
10992;BME280;5549;47.028;15.514;2023-05-13T06:35:32;96812.00;;;10.70;97.27
10992;BME280;5549;47.028;15.514;2023-05-13T06:38:00;96816.94;;;10.52;97.16
10992;BME280;5549;47.028;15.514;2023-05-13T06:40:30;96815.03;;;10.32;99.16
10992;BME280;5549;47.028;15.514;2023-05-13T06:43:02;96817.03;;;10.62;97.62
10992;BME280;5549;47.028;15.514;2023-05-13T06:45:30;96815.50;;;10.48;98.49
10992;BME280;5549;47.028;15.514;2023-05-13T06:47:58;96818.25;;;10.24;100.00
10992;BME280;5549;47.028;15.514;2023-05-13T06:50:28;96821.22;;;10.31;100.00
10992;BME280;5549;47.028;15.514;2023-05-13T06:52:55;96826.00;;;10.26;100.00
10992;BME280;5549;47.028;15.514;2023-05-13T06:55:23;96825.16;;;10.25;100.00
10992;BME280;5549;47.028;15.514;2023-05-13T06:57:53;96831.88;;;10.41;98.67
10992;BME280;5549;47.028;15.514;2023-05-13T07:00:22;96834.81;;;10.14;100.00
10992;BME280;5549;47.028;15.514;2023-05-13T07:02:53;96841.00;;;10.13;100.00
10992;BME280;5549;47.028;15.514;2023-05-13T07:05:21;96842.69;;;10.14;100.00
10992;BME280;5549;47.028;15.514;2023-05-13T07:07:48;96841.53;;;10.40;99.33
10992;BME280;5549;47.028;15.514;2023-05-13T07:10:18;96832.09;;;10.26;100.00
10992;BME280;5549;47.028;15.514;2023-05-13T07:12:46;96839.38;;;10.23;100.00
10992;BME280;5549;47.028;15.514;2023-05-13T07:15:15;96834.25;;;10.21;100.00
10992;BME280;5549;47.028;15.514;2023-05-13T07:17:44;96848.66;;;10.27;100.00
10992;BME280;5549;47.028;15.514;2023-05-13T07:20:14;96839.34;;;10.34;100.00
10992;BME280;5549;47.028;15.514;2023-05-13T07:22:44;96841.88;;;10.47;99.09
10992;BME280;5549;47.028;15.514;2023-05-13T07:25:11;96843.91;;;10.43;98.58
10992;BME280;5549;47.028;15.514;2023-05-13T07:27:41;96851.06;;;10.52;98.98
10992;BME280;5549;47.028;15.514;2023-05-13T07:30:10;96846.88;;;10.39;99.52
10992;BME280;5549;47.028;15.514;2023-05-13T07:32:39;96854.19;;;10.46;99.28
10992;BME280;5549;47.028;15.514;2023-05-13T07:35:11;96857.03;;;10.54;99.34
10992;BME280;5549;47.028;15.514;2023-05-13T07:37:41;96849.03;;;10.56;99.84
10992;BME280;5549;47.028;15.514;2023-05-13T07:40:09;96853.94;;;10.49;99.33
10992;BME280;5549;47.028;15.514;2023-05-13T07:42:38;96852.25;;;10.26;100.00
10992;BME280;5549;47.028;15.514;2023-05-13T07:45:08;96843.44;;;10.49;99.25
10992;BME280;5549;47.028;15.514;2023-05-13T07:47:36;96853.31;;;10.35;100.00
10992;BME280;5549;47.028;15.514;2023-05-13T07:50:05;96848.31;;;10.54;98.60
10992;BME280;5549;47.028;15.514;2023-05-13T07:52:34;96850.69;;;10.57;99.31
10992;BME280;5549;47.028;15.514;2023-05-13T07:55:04;96845.78;;;10.75;98.07
10992;BME280;5549;47.028;15.514;2023-05-13T07:57:34;96851.06;;;10.41;100.00
10992;BME280;5549;47.028;15.514;2023-05-13T08:00:01;96845.53;;;10.78;97.69
10992;BME280;5549;47.028;15.514;2023-05-13T08:02:29;96846.94;;;10.82;97.05
10992;BME280;5549;47.028;15.514;2023-05-13T08:05:00;96851.44;;;10.48;98.79
10992;BME280;5549;47.028;15.514;2023-05-13T08:07:28;96848.16;;;10.78;98.28
10992;BME280;5549;47.028;15.514;2023-05-13T08:09:59;96853.19;;;10.70;98.71
10992;BME280;5549;47.028;15.514;2023-05-13T08:12:26;96853.84;;;10.94;96.43
10992;BME280;5549;47.028;15.514;2023-05-13T08:14:56;96855.84;;;11.02;95.90
10992;BME280;5549;47.028;15.514;2023-05-13T08:17:23;96855.63;;;10.93;97.73
10992;BME280;5549;47.028;15.514;2023-05-13T08:19:53;96853.09;;;11.03;98.68
10992;BME280;5549;47.028;15.514;2023-05-13T08:22:24;96852.31;;;10.91;97.80
10992;BME280;5549;47.028;15.514;2023-05-13T08:24:55;96854.47;;;11.18;97.13
10992;BME280;5549;47.028;15.514;2023-05-13T08:27:26;96856.44;;;11.05;96.19
10992;BME280;5549;47.028;15.514;2023-05-13T08:29:53;96853.34;;;11.00;97.41
10992;BME280;5549;47.028;15.514;2023-05-13T08:32:21;96856.59;;;10.92;96.69
10992;BME280;5549;47.028;15.514;2023-05-13T08:34:50;96852.38;;;11.01;96.96
10992;BME280;5549;47.028;15.514;2023-05-13T08:37:20;96850.59;;;11.02;96.69
10992;BME280;5549;47.028;15.514;2023-05-13T08:39:48;96852.59;;;11.09;95.39
10992;BME280;5549;47.028;15.514;2023-05-13T08:42:19;96853.34;;;11.00;97.37
10992;BME280;5549;47.028;15.514;2023-05-13T08:44:51;96848.00;;;10.90;99.40
10992;BME280;5549;47.028;15.514;2023-05-13T08:47:28;96853.53;;;11.19;96.55
10992;BME280;5549;47.028;15.514;2023-05-13T08:50:00;96856.59;;;11.24;95.04
10992;BME280;5549;47.028;15.514;2023-05-13T08:52:28;96860.03;;;11.04;96.25
10992;BME280;5549;47.028;15.514;2023-05-13T08:54:59;96861.16;;;11.22;94.01
10992;BME280;5549;47.028;15.514;2023-05-13T08:57:31;96861.19;;;11.11;94.83
10992;BME280;5549;47.028;15.514;2023-05-13T09:00:06;96858.84;;;11.29;93.00
10992;BME280;5549;47.028;15.514;2023-05-13T09:02:35;96866.53;;;11.21;94.75
10992;BME280;5549;47.028;15.514;2023-05-13T09:05:06;96864.06;;;11.08;95.89
10992;BME280;5549;47.028;15.514;2023-05-13T09:07:35;96871.38;;;11.05;96.09
10992;BME280;5549;47.028;15.514;2023-05-13T09:10:04;96858.19;;;11.16;96.18
10992;BME280;5549;47.028;15.514;2023-05-13T09:12:45;96866.50;;;11.32;94.89
10992;BME280;5549;47.028;15.514;2023-05-13T09:15:19;96870.28;;;11.39;95.79
10992;BME280;5549;47.028;15.514;2023-05-13T09:17:50;96865.09;;;11.49;94.99
10992;BME280;5549;47.028;15.514;2023-05-13T09:20:21;96867.53;;;11.41;93.17
10992;BME280;5549;47.028;15.514;2023-05-13T09:22:53;96863.81;;;11.43;92.85
10992;BME280;5549;47.028;15.514;2023-05-13T09:25:21;96866.75;;;11.82;92.23
10992;BME280;5549;47.028;15.514;2023-05-13T09:27:52;96865.19;;;11.79;92.51
10992;BME280;5549;47.028;15.514;2023-05-13T09:30:25;96867.84;;;11.79;92.79
10992;BME280;5549;47.028;15.514;2023-05-13T09:33:09;96872.97;;;11.81;91.65
10992;BME280;5549;47.028;15.514;2023-05-13T09:35:38;96873.41;;;11.86;91.44
10992;BME280;5549;47.028;15.514;2023-05-13T09:38:14;96871.47;;;11.67;92.00
10992;BME280;5549;47.028;15.514;2023-05-13T09:40:51;96870.38;;;11.70;92.78
10992;BME280;5549;47.028;15.514;2023-05-13T09:43:20;96866.94;;;11.90;92.36
10992;BME280;5549;47.028;15.514;2023-05-13T09:45:53;96865.13;;;11.91;92.04
10992;BME280;5549;47.028;15.514;2023-05-13T09:48:24;96874.63;;;12.03;91.24
10992;BME280;5549;47.028;15.514;2023-05-13T09:50:55;96868.53;;;12.23;89.56
10992;BME280;5549;47.028;15.514;2023-05-13T09:53:27;96868.78;;;12.20;90.40
10992;BME280;5549;47.028;15.514;2023-05-13T09:55:56;96869.66;;;12.09;91.55
10992;BME280;5549;47.028;15.514;2023-05-13T09:58:26;96870.41;;;12.42;89.67
10992;BME280;5549;47.028;15.514;2023-05-13T10:00:57;96871.66;;;12.47;89.03
10992;BME280;5549;47.028;15.514;2023-05-13T10:03:26;96874.38;;;12.06;94.04
10992;BME280;5549;47.028;15.514;2023-05-13T10:05:56;96877.56;;;12.09;92.44
10992;BME280;5549;47.028;15.514;2023-05-13T10:08:27;96877.59;;;11.88;91.05
10992;BME280;5549;47.028;15.514;2023-05-13T10:10:58;96882.28;;;11.85;89.99
10992;BME280;5549;47.028;15.514;2023-05-13T10:13:30;96875.63;;;11.49;93.71
10992;BME280;5549;47.028;15.514;2023-05-13T10:16:02;96876.47;;;11.70;92.12
10992;BME280;5549;47.028;15.514;2023-05-13T10:18:30;96874.47;;;11.42;93.56
10992;BME280;5549;47.028;15.514;2023-05-13T10:20:58;96872.47;;;11.34;94.44
10992;BME280;5549;47.028;15.514;2023-05-13T10:23:25;96876.13;;;11.43;94.56
10992;BME280;5549;47.028;15.514;2023-05-13T10:25:53;96878.44;;;11.57;92.37
10992;BME280;5549;47.028;15.514;2023-05-13T10:28:21;96884.53;;;11.37;93.89
10992;BME280;5549;47.028;15.514;2023-05-13T10:30:50;96877.88;;;11.21;95.21
10992;BME280;5549;47.028;15.514;2023-05-13T10:33:22;96877.91;;;11.42;94.04
10992;BME280;5549;47.028;15.514;2023-05-13T10:36:03;96875.63;;;11.49;93.31
10992;BME280;5549;47.028;15.514;2023-05-13T10:38:56;96880.56;;;11.42;94.67
10992;BME280;5549;47.028;15.514;2023-05-13T10:42:28;96883.84;;;11.23;96.03
10992;BME280;5549;47.028;15.514;2023-05-13T10:44:57;96887.47;;;11.11;95.41
10992;BME280;5549;47.028;15.514;2023-05-13T10:47:26;96891.00;;;11.33;95.26
10992;BME280;5549;47.028;15.514;2023-05-13T10:49:57;96890.66;;;11.26;96.05
10992;BME280;5549;47.028;15.514;2023-05-13T10:52:41;96891.25;;;11.30;95.00
10992;BME280;5549;47.028;15.514;2023-05-13T10:55:17;96889.72;;;11.48;95.54
10992;BME280;5549;47.028;15.514;2023-05-13T10:58:07;96889.03;;;11.46;95.59
10992;BME280;5549;47.028;15.514;2023-05-13T11:00:35;96886.19;;;11.38;94.64
10992;BME280;5549;47.028;15.514;2023-05-13T11:03:13;96891.19;;;11.41;95.21
10992;BME280;5549;47.028;15.514;2023-05-13T11:05:45;96886.00;;;11.50;94.51
10992;BME280;5549;47.028;15.514;2023-05-13T11:08:37;96879.72;;;11.42;95.60
10992;BME280;5549;47.028;15.514;2023-05-13T11:11:25;96878.72;;;11.22;98.38
10992;BME280;5549;47.028;15.514;2023-05-13T11:14:05;96888.44;;;11.42;96.88
10992;BME280;5549;47.028;15.514;2023-05-13T11:16:36;96883.19;;;11.63;95.64
10992;BME280;5549;47.028;15.514;2023-05-13T11:19:17;96889.28;;;11.64;95.22
10992;BME280;5549;47.028;15.514;2023-05-13T11:21:50;96883.53;;;11.70;94.27
10992;BME280;5549;47.028;15.514;2023-05-13T11:24:20;96897.63;;;11.48;95.14
10992;BME280;5549;47.028;15.514;2023-05-13T11:26:51;96894.78;;;11.40;97.01
10992;BME280;5549;47.028;15.514;2023-05-13T11:29:30;96892.34;;;11.48;96.19
10992;BME280;5549;47.028;15.514;2023-05-13T11:32:02;96885.63;;;11.55;96.03
10992;BME280;5549;47.028;15.514;2023-05-13T11:34:33;96893.25;;;11.37;98.97
10992;BME280;5549;47.028;15.514;2023-05-13T11:37:09;96890.34;;;11.40;97.22
10992;BME280;5549;47.028;15.514;2023-05-13T11:39:40;96888.22;;;11.66;95.15
10992;BME280;5549;47.028;15.514;2023-05-13T11:42:10;96896.09;;;11.02;98.54
10992;BME280;5549;47.028;15.514;2023-05-13T11:44:45;96896.06;;;11.13;97.24
10992;BME280;5549;47.028;15.514;2023-05-13T11:47:13;96895.06;;;10.93;98.63
10992;BME280;5549;47.028;15.514;2023-05-13T11:49:44;96897.03;;;11.12;97.17
10992;BME280;5549;47.028;15.514;2023-05-13T11:52:15;96897.53;;;11.06;98.33
10992;BME280;5549;47.028;15.514;2023-05-13T11:54:46;96897.91;;;11.02;99.54
10992;BME280;5549;47.028;15.514;2023-05-13T11:57:21;96899.66;;;11.12;98.21
10992;BME280;5549;47.028;15.514;2023-05-13T11:59:55;96892.06;;;11.30;98.24
10992;BME280;5549;47.028;15.514;2023-05-13T12:02:25;96894.47;;;11.54;96.09
10992;BME280;5549;47.028;15.514;2023-05-13T12:04:58;96901.22;;;11.47;96.62
10992;BME280;5549;47.028;15.514;2023-05-13T12:07:30;96905.00;;;11.54;96.03
10992;BME280;5549;47.028;15.514;2023-05-13T12:10:02;96906.69;;;11.76;95.66
10992;BME280;5549;47.028;15.514;2023-05-13T12:12:32;96907.84;;;11.62;94.54
10992;BME280;5549;47.028;15.514;2023-05-13T12:15:03;96900.72;;;11.53;96.07
10992;BME280;5549;47.028;15.514;2023-05-13T12:17:34;96905.13;;;11.84;94.32
10992;BME280;5549;47.028;15.514;2023-05-13T12:20:10;96909.16;;;11.88;94.25
10992;BME280;5549;47.028;15.514;2023-05-13T12:22:53;96903.13;;;11.98;93.30
10992;BME280;5549;47.028;15.514;2023-05-13T12:25:39;96904.47;;;11.92;94.55
10992;BME280;5549;47.028;15.514;2023-05-13T12:28:12;96910.31;;;11.96;94.53
10992;BME280;5549;47.028;15.514;2023-05-13T12:30:47;96915.94;;;11.70;95.48
10992;BME280;5549;47.028;15.514;2023-05-13T12:33:17;96922.78;;;11.62;94.26
10992;BME280;5549;47.028;15.514;2023-05-13T12:35:48;96920.00;;;11.95;93.05
10992;BME280;5549;47.028;15.514;2023-05-13T12:38:19;96917.44;;;11.84;93.23
10992;BME280;5549;47.028;15.514;2023-05-13T12:40:47;96916.34;;;11.86;93.70
10992;BME280;5549;47.028;15.514;2023-05-13T12:43:18;96918.16;;;12.07;92.72
10992;BME280;5549;47.028;15.514;2023-05-13T12:45:52;96917.88;;;12.10;92.22
10992;BME280;5549;47.028;15.514;2023-05-13T12:48:24;96918.41;;;12.04;93.29
10992;BME280;5549;47.028;15.514;2023-05-13T12:50:52;96914.16;;;11.92;94.60
10992;BME280;5549;47.028;15.514;2023-05-13T12:53:22;96917.63;;;12.13;93.37
10992;BME280;5549;47.028;15.514;2023-05-13T12:55:50;96918.78;;;11.99;93.90
10992;BME280;5549;47.028;15.514;2023-05-13T12:58:20;96918.66;;;12.01;93.54
10992;BME280;5549;47.028;15.514;2023-05-13T13:00:50;96920.53;;;12.10;93.64
10992;BME280;5549;47.028;15.514;2023-05-13T13:03:18;96919.63;;;12.00;94.93
10992;BME280;5549;47.028;15.514;2023-05-13T13:05:47;96920.09;;;11.73;95.27
10992;BME280;5549;47.028;15.514;2023-05-13T13:08:16;96919.94;;;12.06;93.92
10992;BME280;5549;47.028;15.514;2023-05-13T13:10:45;96918.41;;;12.04;94.61
10992;BME280;5549;47.028;15.514;2023-05-13T13:13:13;96915.97;;;11.91;94.99
10992;BME280;5549;47.028;15.514;2023-05-13T13:15:41;96912.69;;;11.78;95.31
10992;BME280;5549;47.028;15.514;2023-05-13T13:18:08;96912.47;;;11.38;98.04